Time;durP1;ratioP1;P1;durP2;ratioP2;P2;SDS_P1;SDS_P2;PMS_P1;PMS_P2;Temp;Humidity;BMP_temperature;BMP_pressure;BME280_temperature;BME280_humidity;BME280_pressure;Samples;Min_cycle;Max_cycle;Signal;HPM_P1;HPM_P2
2022/06/03 00:01:28;;;;;;;4.50;4.10;;;13.30;99.90;;;;;;5011141;28;20813;-93
2022/06/03 00:04:12;;;;;;;5.00;4.50;;;13.30;99.90;;;;;;5011222;28;20471;-89
2022/06/03 00:06:55;;;;;;;7.10;4.47;;;13.30;99.90;;;;;;5014197;28;20571;-94
2022/06/03 00:09:57;;;;;;;4.97;4.57;;;13.20;99.90;;;;;;5020656;28;20487;-94
2022/06/03 00:12:51;;;;;;;5.77;4.70;;;13.30;99.90;;;;;;5018235;23;20471;-95
2022/06/03 00:15:40;;;;;;;5.30;4.90;;;13.30;99.90;;;;;;5009505;28;20475;-94
2022/06/03 00:18:38;;;;;;;5.73;5.23;;;13.30;99.90;;;;;;5024709;23;20496;-94
2022/06/03 00:21:08;;;;;;;5.20;4.70;;;13.30;99.90;;;;;;4984337;28;20450;-94
2022/06/03 00:24:01;;;;;;;4.87;4.47;;;13.30;99.90;;;;;;4978364;28;20438;-91
2022/06/03 00:27:08;;;;;;;4.47;4.07;;;13.30;99.90;;;;;;4978055;28;20906;-94
2022/06/03 00:29:59;;;;;;;5.07;4.60;;;13.20;99.90;;;;;;4977295;28;20438;-93
2022/06/03 00:33:03;;;;;;;5.93;4.30;;;13.20;99.90;;;;;;4981620;28;20449;-91
2022/06/03 00:35:51;;;;;;;4.87;4.43;;;13.20;99.90;;;;;;4995490;28;20453;-93
2022/06/03 00:38:39;;;;;;;5.00;4.43;;;13.10;99.90;;;;;;4996853;28;20430;-92
2022/06/03 00:41:20;;;;;;;5.40;4.90;;;13.10;99.90;;;;;;4995805;28;20441;-92
2022/06/03 00:44:32;;;;;;;4.67;4.30;;;13.10;99.90;;;;;;4997028;28;20487;-93
2022/06/03 00:47:35;;;;;;;4.93;4.53;;;13.00;99.90;;;;;;4997128;28;20449;-95
2022/06/03 00:50:25;;;;;;;5.60;4.90;;;13.00;99.90;;;;;;4997602;28;20445;-92
2022/06/03 00:53:22;;;;;;;5.47;4.97;;;13.00;99.90;;;;;;4999308;28;20449;-94
2022/06/03 00:56:27;;;;;;;4.53;4.13;;;13.00;99.90;;;;;;4987890;28;20449;-93
2022/06/03 00:59:07;;;;;;;4.70;4.33;;;13.00;99.90;;;;;;4993868;28;20497;-93
2022/06/03 01:01:40;;;;;;;4.53;4.13;;;13.00;99.90;;;;;;4996776;28;20987;-93
2022/06/03 01:04:27;;;;;;;5.23;4.60;;;13.00;99.90;;;;;;4989755;28;20462;-94
2022/06/03 01:07:06;;;;;;;5.27;4.70;;;12.90;99.90;;;;;;4994757;28;20862;-91
2022/06/03 01:10:07;;;;;;;4.97;4.57;;;12.90;99.90;;;;;;4997327;28;20492;-93
2022/06/03 01:13:04;;;;;;;4.90;4.50;;;12.90;99.90;;;;;;4993501;28;20477;-94
2022/06/03 01:15:38;;;;;;;5.10;4.60;;;12.80;99.90;;;;;;4998019;28;20449;-93
2022/06/03 01:18:24;;;;;;;4.90;4.50;;;12.90;99.90;;;;;;4999334;28;21026;-93
2022/06/03 01:21:07;;;;;;;4.50;4.13;;;12.90;99.90;;;;;;4996851;28;20445;-92
2022/06/03 01:24:09;;;;;;;4.17;3.87;;;12.80;99.90;;;;;;4998953;28;20448;-94
2022/06/03 01:27:04;;;;;;;4.83;4.47;;;12.80;99.90;;;;;;4998954;28;20438;-93
2022/06/03 01:29:46;;;;;;;5.20;4.70;;;12.80;99.90;;;;;;4998621;28;20468;-93
2022/06/03 01:32:55;;;;;;;4.90;4.50;;;12.80;99.90;;;;;;4998659;28;20448;-94
2022/06/03 01:35:59;;;;;;;5.90;4.53;;;12.80;99.90;;;;;;4996145;28;20547;-95
2022/06/03 01:38:43;;;;;;;4.37;4.07;;;12.70;99.90;;;;;;4998512;28;20477;-95
2022/06/03 01:41:32;;;;;;;4.80;4.40;;;12.70;99.90;;;;;;4999166;28;20503;-93
2022/06/03 01:44:34;;;;;;;4.93;4.43;;;12.70;99.90;;;;;;4992091;28;20960;-92
2022/06/03 01:47:34;;;;;;;5.07;4.57;;;12.70;99.90;;;;;;4993598;28;20449;-93
2022/06/03 01:50:17;;;;;;;5.17;4.77;;;12.60;99.90;;;;;;4996129;28;20457;-93
2022/06/03 01:53:14;;;;;;;6.07;4.80;;;12.60;99.90;;;;;;4997666;28;20456;-92
2022/06/03 01:56:20;;;;;;;5.20;4.20;;;12.60;99.90;;;;;;4996666;28;20948;-93
2022/06/03 01:59:25;;;;;;;5.03;4.40;;;12.60;99.90;;;;;;4995452;28;20472;-93
2022/06/03 02:02:32;;;;;;;4.43;4.03;;;12.60;99.90;;;;;;5000389;28;20456;-95
2022/06/03 02:05:35;;;;;;;4.97;4.57;;;12.60;99.90;;;;;;5000121;28;20437;-94
2022/06/03 02:08:31;;;;;;;5.43;4.83;;;12.60;99.90;;;;;;4977790;28;20455;-94
2022/06/03 02:11:26;;;;;;;4.90;4.50;;;12.60;99.90;;;;;;5000496;28;20448;-93
2022/06/03 02:14:26;;;;;;;6.07;4.47;;;12.60;99.90;;;;;;5002402;28;20491;-93
2022/06/03 02:17:18;;;;;;;6.20;5.00;;;12.60;99.90;;;;;;4983406;28;20449;-92
2022/06/03 02:20:50;;;;;;;5.00;4.50;;;12.60;99.90;;;;;;4994336;28;20453;-90
2022/06/03 02:23:33;;;;;;;5.10;4.70;;;12.60;99.90;;;;;;5018536;28;20445;-91
2022/06/03 02:26:46;;;;;;;6.60;4.70;;;12.60;99.90;;;;;;4999597;28;20437;-95
2022/06/03 02:32:50;;;;;;;5.40;4.90;;;12.60;99.90;;;;;;4960178;29;20473;-92
2022/06/03 02:35:36;;;;;;;5.13;4.50;;;12.60;99.90;;;;;;4994131;28;20488;-93
2022/06/03 02:38:29;;;;;;;5.07;4.67;;;12.60;99.90;;;;;;4999314;28;20453;-94
2022/06/03 02:41:30;;;;;;;4.40;4.10;;;12.60;99.90;;;;;;4996468;28;20465;-93
2022/06/03 02:44:17;;;;;;;4.73;4.40;;;12.60;99.90;;;;;;4987696;28;20457;-93
2022/06/03 02:47:18;;;;;;;5.57;5.07;;;12.60;99.90;;;;;;5000181;28;20488;-93
2022/06/03 02:50:30;;;;;;;5.20;4.80;;;12.60;99.90;;;;;;4996739;28;20460;-94
2022/06/03 02:53:23;;;;;;;5.70;4.50;;;12.60;99.90;;;;;;5000587;28;20442;-93
2022/06/03 02:56:09;;;;;;;5.73;5.30;;;12.60;99.90;;;;;;5000965;28;20449;-93
2022/06/03 02:59:18;;;;;;;5.90;4.37;;;12.60;99.90;;;;;;5000200;28;20503;-94
2022/06/03 03:02:06;;;;;;;4.90;4.50;;;12.60;99.90;;;;;;4998688;28;20464;-93
2022/06/03 03:04:54;;;;;;;4.30;4.00;;;12.60;99.90;;;;;;4995264;28;20849;-93
2022/06/03 03:07:45;;;;;;;5.27;4.77;;;12.60;99.90;;;;;;4999899;28;20438;-94
2022/06/03 03:10:34;;;;;;;8.90;5.20;;;12.60;99.90;;;;;;4966071;28;20861;-94
2022/06/03 03:13:48;;;;;;;5.43;5.03;;;12.70;99.90;;;;;;4999970;28;20465;-94
2022/06/03 03:16:46;;;;;;;4.70;4.30;;;12.70;99.90;;;;;;4999307;28;20429;-94
2022/06/03 03:19:52;;;;;;;4.77;4.37;;;12.70;99.90;;;;;;4995438;28;20493;-93
2022/06/03 03:22:50;;;;;;;5.00;4.27;;;12.70;99.90;;;;;;5000601;28;20459;-95
2022/06/03 03:25:41;;;;;;;5.83;5.23;;;12.70;99.90;;;;;;5001432;28;20453;-94
2022/06/03 03:28:24;;;;;;;5.63;5.13;;;12.70;99.90;;;;;;4998385;28;20457;-93
2022/06/03 03:31:04;;;;;;;5.77;5.10;;;12.70;99.90;;;;;;5005799;28;20445;-93
2022/06/03 03:34:01;;;;;;;4.90;4.50;;;12.70;99.90;;;;;;5004925;28;20468;-90
2022/06/03 03:36:47;;;;;;;4.90;4.30;;;12.60;99.90;;;;;;5006905;28;20457;-90
2022/06/03 03:39:53;;;;;;;5.23;4.80;;;12.60;99.90;;;;;;5007327;28;20456;-92
2022/06/03 03:42:36;;;;;;;5.30;4.90;;;12.60;99.90;;;;;;5005712;28;20441;-92
2022/06/03 03:45:33;;;;;;;5.00;4.60;;;12.60;99.90;;;;;;5004163;28;20483;-90
2022/06/03 03:48:41;;;;;;;5.53;5.03;;;12.60;99.90;;;;;;4996323;28;20453;-90
2022/06/03 03:51:45;;;;;;;5.33;4.70;;;12.60;99.90;;;;;;5000155;28;20475;-92
2022/06/03 03:54:56;;;;;;;5.03;4.63;;;12.60;99.90;;;;;;4999025;28;20481;-94
2022/06/03 03:57:56;;;;;;;5.40;5.00;;;12.60;99.90;;;;;;5000266;28;20437;-92
2022/06/03 04:00:57;;;;;;;5.43;5.00;;;12.70;99.90;;;;;;5000727;28;20457;-91
2022/06/03 04:04:06;;;;;;;5.33;4.83;;;12.60;99.90;;;;;;4980804;28;20534;-93
2022/06/03 04:07:04;;;;;;;5.47;5.07;;;12.70;99.90;;;;;;4979311;28;20446;-92
2022/06/03 04:10:39;;;;;;;7.47;5.30;;;12.70;99.90;;;;;;4955761;28;20558;-93
2022/06/03 04:13:42;;;;;;;6.00;5.10;;;12.80;99.90;;;;;;4907722;29;20450;-92
2022/06/03 04:16:45;;;;;;;5.33;4.93;;;12.80;99.90;;;;;;4987517;28;20489;-93
2022/06/03 04:19:57;;;;;;;5.70;4.90;;;12.80;99.90;;;;;;4964589;28;20478;-92
2022/06/03 04:23:01;;;;;;;5.40;4.90;;;12.80;99.90;;;;;;4927704;29;20479;-94
2022/06/03 04:25:50;;;;;;;5.77;5.27;;;12.90;99.90;;;;;;4989999;28;20453;-93
2022/06/03 04:28:59;;;;;;;5.37;4.87;;;12.90;99.90;;;;;;4987820;28;20453;-94
2022/06/03 04:31:57;;;;;;;6.00;5.50;;;13.00;99.90;;;;;;4994710;28;20457;-93
2022/06/03 04:34:58;;;;;;;6.13;5.53;;;13.10;99.90;;;;;;5001450;28;20480;-92
2022/06/03 04:37:54;;;;;;;5.80;5.23;;;13.20;99.90;;;;;;5001856;28;20457;-92
2022/06/03 04:41:18;;;;;;;6.00;5.50;;;13.30;99.90;;;;;;5002029;28;20454;-93
2022/06/03 04:44:20;;;;;;;7.67;7.00;;;13.50;99.90;;;;;;5001313;28;20472;-91
2022/06/03 04:47:38;;;;;;;7.83;7.13;;;13.70;99.90;;;;;;5002509;28;20449;-93
2022/06/03 04:50:52;;;;;;;8.43;7.63;;;14.00;99.90;;;;;;4999316;28;20974;-92
2022/06/03 04:54:08;;;;;;;14.13;7.30;;;14.20;99.90;;;;;;5003653;28;20453;-93
2022/06/03 04:57:08;;;;;;;8.93;7.47;;;14.50;99.90;;;;;;5002733;28;20465;-92
2022/06/03 05:00:16;;;;;;;13.30;8.07;;;14.70;99.90;;;;;;5010927;28;20449;-91
2022/06/03 05:03:18;;;;;;;8.70;7.07;;;14.90;99.90;;;;;;4994470;28;20449;-91
2022/06/03 05:06:23;;;;;;;7.20;6.60;;;15.10;99.90;;;;;;5013244;28;20460;-93
2022/06/03 05:09:40;;;;;;;7.37;6.60;;;15.30;99.90;;;;;;5010125;28;20445;-89
2022/06/03 05:12:44;;;;;;;8.03;7.23;;;15.50;99.90;;;;;;5010220;28;20477;-93
2022/06/03 05:15:48;;;;;;;7.87;7.17;;;15.70;99.90;;;;;;4997788;28;20481;-93
2022/06/03 05:18:57;;;;;;;7.27;6.67;;;15.90;99.90;;;;;;4998583;28;20481;-92
2022/06/03 05:21:55;;;;;;;8.67;7.07;;;16.00;99.90;;;;;;4995919;28;20483;-94
2022/06/03 05:25:05;;;;;;;7.87;6.83;;;16.20;99.90;;;;;;4969758;28;20476;-94
2022/06/03 05:28:20;;;;;;;11.70;7.20;;;16.30;99.90;;;;;;5004630;28;20441;-93
2022/06/03 05:31:23;;;;;;;7.13;6.43;;;16.40;99.90;;;;;;4988612;28;20466;-94
2022/06/03 05:34:12;;;;;;;7.07;6.47;;;17.00;99.90;;;;;;4985132;28;20989;-92
2022/06/03 05:37:10;;;;;;;7.10;5.80;;;17.60;99.90;;;;;;4978490;28;20453;-89
2022/06/03 05:40:08;;;;;;;6.30;5.13;;;18.50;99.90;;;;;;4975996;28;20495;-90
2022/06/03 05:42:47;;;;;;;13.20;6.10;;;19.30;99.90;;;;;;4978553;28;20450;-91
2022/06/03 05:45:42;;;;;;;8.43;5.87;;;19.70;99.90;;;;;;4977224;28;20968;-88
2022/06/03 05:48:15;;;;;;;6.43;5.93;;;19.70;99.90;;;;;;4981364;28;20441;-90
2022/06/03 05:50:48;;;;;;;6.30;5.70;;;20.30;99.90;;;;;;4997717;28;20472;-90
2022/06/03 05:53:33;;;;;;;6.10;5.70;;;20.40;99.90;;;;;;5003064;28;20468;-92
2022/06/03 05:56:18;;;;;;;5.70;5.20;;;20.60;99.90;;;;;;5009109;28;20472;-91
2022/06/03 05:58:49;;;;;;;6.63;5.43;;;20.80;99.90;;;;;;5002554;28;20453;-90
2022/06/03 06:01:37;;;;;;;6.70;6.03;;;20.30;99.90;;;;;;4998288;28;20804;-92
2022/06/03 06:04:11;;;;;;;7.77;5.47;;;20.60;99.90;;;;;;4997618;28;20438;-93
2022/06/03 06:06:51;;;;;;;8.27;5.17;;;20.20;99.90;;;;;;4997368;28;20453;-90
2022/06/03 06:12:43;;;;;;;5.57;5.07;;;20.50;99.90;;;;;;5091115;27;20569;-94
2022/06/03 06:15:43;;;;;;;4.53;4.23;;;19.90;99.90;;;;;;5091319;28;20456;-90
2022/06/03 06:18:21;;;;;;;7.03;5.47;;;20.50;99.90;;;;;;5090196;28;20448;-90
2022/06/03 06:20:58;;;;;;;6.80;4.63;;;20.50;99.90;;;;;;5090893;28;20447;-90
2022/06/03 06:23:39;;;;;;;5.80;5.30;;;20.60;99.90;;;;;;5090924;28;20934;-90
2022/06/03 06:26:32;;;;;;;5.07;4.67;;;20.00;99.90;;;;;;5091999;28;20452;-88
2022/06/03 06:29:25;;;;;;;5.10;4.60;;;20.00;99.90;;;;;;5090509;28;20452;-89
2022/06/03 06:32:28;;;;;;;5.43;4.93;;;20.70;99.90;;;;;;5090737;28;20492;-88
2022/06/03 06:35:37;;;;;;;4.73;4.43;;;21.50;99.90;;;;;;5090573;28;20445;-92
2022/06/03 06:38:13;;;;;;;5.00;4.60;;;21.80;99.90;;;;;;5091945;28;20429;-89
2022/06/03 06:40:48;;;;;;;5.60;5.10;;;22.50;99.00;;;;;;5091685;28;20452;-89
2022/06/03 06:43:33;;;;;;;5.30;4.90;;;22.50;98.50;;;;;;5091833;28;20444;-90
2022/06/03 06:46:10;;;;;;;4.27;3.97;;;22.20;98.90;;;;;;5090470;28;20444;-90
2022/06/03 06:48:49;;;;;;;4.60;4.30;;;22.40;99.50;;;;;;5089556;28;20531;-91
2022/06/03 06:51:34;;;;;;;4.73;4.43;;;22.90;98.20;;;;;;5091546;28;20499;-90
2022/06/03 06:54:06;;;;;;;5.00;4.60;;;23.30;96.60;;;;;;5086952;28;20436;-90
2022/06/03 06:56:40;;;;;;;5.33;4.93;;;23.10;96.90;;;;;;5088264;28;20445;-89
2022/06/03 06:59:11;;;;;;;5.37;4.30;;;23.10;96.60;;;;;;5090142;28;20972;-89
2022/06/03 07:01:44;;;;;;;4.83;4.53;;;23.40;96.80;;;;;;5090123;28;20452;-89
2022/06/03 07:04:15;;;;;;;4.77;4.40;;;24.00;95.10;;;;;;5089960;28;20441;-91
2022/06/03 07:06:44;;;;;;;5.47;4.70;;;24.40;94.30;;;;;;5090478;28;20451;-89
2022/06/03 07:09:39;;;;;;;4.87;4.47;;;24.40;94.50;;;;;;5089563;28;20457;-91
2022/06/03 07:12:11;;;;;;;5.37;4.53;;;24.60;95.50;;;;;;5089874;28;20579;-90
2022/06/03 07:14:45;;;;;;;5.00;4.50;;;25.30;92.40;;;;;;5090244;28;20449;-89
2022/06/03 07:20:16;;;;;;;4.90;4.50;;;24.40;94.20;;;;;;5088869;28;20429;-90
2022/06/03 07:22:48;;;;;;;5.10;4.70;;;25.00;92.40;;;;;;5080546;28;20453;-91
2022/06/03 07:25:24;;;;;;;5.40;4.90;;;24.90;93.40;;;;;;5075989;28;20530;-90
2022/06/03 07:27:57;;;;;;;5.13;4.60;;;25.00;92.80;;;;;;5076583;28;20442;-94
2022/06/03 07:30:32;;;;;;;5.50;4.83;;;25.30;92.10;;;;;;5077231;28;20940;-92
2022/06/03 07:33:05;;;;;;;4.80;4.50;;;25.40;91.60;;;;;;5079325;28;20441;-93
2022/06/03 07:35:41;;;;;;;6.03;5.47;;;24.80;92.50;;;;;;5085203;28;20481;-87
2022/06/03 07:38:20;;;;;;;6.27;5.23;;;24.10;94.20;;;;;;5080233;28;20445;-88
2022/06/03 07:40:52;;;;;;;9.33;4.50;;;24.60;93.70;;;;;;5077785;28;20457;-89
2022/06/03 07:43:28;;;;;;;5.70;5.10;;;24.60;93.40;;;;;;5080204;28;20456;-87
2022/06/03 07:46:00;;;;;;;7.03;4.80;;;24.30;94.00;;;;;;5081562;28;20445;-88
2022/06/03 07:48:32;;;;;;;5.73;4.47;;;24.70;93.40;;;;;;5086351;28;20932;-91
2022/06/03 07:51:01;;;;;;;5.30;4.90;;;24.60;93.30;;;;;;5080920;28;20488;-88
2022/06/03 07:53:37;;;;;;;7.67;4.73;;;24.80;93.70;;;;;;5078106;28;20452;-88
2022/06/03 07:56:06;;;;;;;5.37;4.70;;;24.80;93.60;;;;;;5077957;28;20445;-92
2022/06/03 07:58:36;;;;;;;4.93;4.10;;;25.70;92.80;;;;;;5080493;28;20457;-93
2022/06/03 08:01:03;;;;;;;7.67;3.97;;;;;;;;;;5077445;28;20453;-92
2022/06/03 08:03:37;;;;;;;7.93;3.90;;;25.60;94.90;;;;;;5077937;28;20450;-89
2022/06/03 08:06:07;;;;;;;5.63;4.03;;;26.70;92.70;;;;;;5077762;28;20452;-91
2022/06/03 08:11:29;;;;;;;5.63;3.80;;;27.10;90.00;;;;;;5088439;28;20485;-94
2022/06/03 08:13:58;;;;;;;5.37;4.87;;;27.40;89.60;;;;;;5077838;28;20461;-89
2022/06/03 08:16:30;;;;;;;5.47;4.40;;;26.90;91.00;;;;;;5075832;28;20537;-87
2022/06/03 08:19:02;;;;;;;4.57;4.27;;;27.00;90.40;;;;;;5074644;28;20465;-90
2022/06/03 08:21:33;;;;;;;6.63;5.00;;;;;;;;;;5077318;28;20461;-95
2022/06/03 08:24:01;;;;;;;7.70;3.87;;;27.60;89.40;;;;;;5078215;28;20481;-92
2022/06/03 08:26:29;;;;;;;4.80;4.50;;;26.90;88.30;;;;;;5079636;28;20925;-88
2022/06/03 08:29:09;;;;;;;6.00;5.17;;;27.00;89.80;;;;;;5075130;28;20450;-88
2022/06/03 08:31:38;;;;;;;5.10;4.70;;;27.50;86.70;;;;;;5074913;28;20477;-88
2022/06/03 08:34:11;;;;;;;7.43;4.10;;;27.00;89.80;;;;;;5072516;28;20458;-87
2022/06/03 08:36:41;;;;;;;4.50;3.90;;;27.00;89.30;;;;;;5074224;28;20434;-91
2022/06/03 08:39:15;;;;;;;7.50;4.73;;;27.30;86.50;;;;;;5060300;28;20458;-87
2022/06/03 08:42:05;;;;;;;5.40;4.50;;;27.70;84.80;;;;;;5054462;28;20542;-88
2022/06/03 08:44:46;;;;;;;4.80;4.30;;;28.00;84.10;;;;;;5054628;28;20455;-88
2022/06/03 08:47:18;;;;;;;4.63;4.23;;;28.40;81.80;;;;;;5054421;28;20447;-89
2022/06/03 08:50:05;;;;;;;4.60;3.83;;;27.80;83.80;;;;;;5053046;28;20446;-89
2022/06/03 08:52:56;;;;;;;5.93;4.57;;;26.60;89.70;;;;;;5054387;28;20506;-87
2022/06/03 08:55:37;;;;;;;5.00;4.60;;;26.50;88.40;;;;;;5055577;28;20454;-91
2022/06/03 08:58:12;;;;;;;7.10;5.10;;;27.10;89.70;;;;;;5058318;28;20454;-85
2022/06/03 09:00:51;;;;;;;4.70;4.27;;;27.90;85.70;;;;;;5056846;28;20446;-86
2022/06/03 09:03:22;;;;;;;9.90;4.97;;;27.20;88.80;;;;;;5056858;28;20466;-86
2022/06/03 09:05:57;;;;;;;4.23;3.83;;;27.90;87.90;;;;;;5054044;28;20818;-86
2022/06/03 09:08:32;;;;;;;8.43;3.67;;;28.10;87.20;;;;;;5055562;28;20450;-86
2022/06/03 09:11:04;;;;;;;4.23;3.57;;;28.40;86.70;;;;;;5055850;28;20469;-86
2022/06/03 09:13:39;;;;;;;9.30;4.57;;;28.90;83.00;;;;;;5057630;28;20446;-88
2022/06/03 09:16:12;;;;;;;6.20;4.50;;;29.10;83.40;;;;;;5058205;28;20451;-87
2022/06/03 09:18:45;;;;;;;4.50;3.90;;;28.80;83.50;;;;;;5059480;28;20457;-92
2022/06/03 09:21:16;;;;;;;4.30;3.90;;;29.10;80.00;;;;;;5055882;28;20455;-87
2022/06/03 09:23:46;;;;;;;4.43;3.70;;;29.30;80.90;;;;;;5057443;28;20446;-90
2022/06/03 09:26:20;;;;;;;4.27;3.90;;;28.20;81.90;;;;;;5056021;28;20848;-92
2022/06/03 09:28:47;;;;;;;4.80;3.87;;;;;;;;;;5055364;28;20807;-90
2022/06/03 09:31:15;;;;;;;4.70;4.30;;;;;;;;;;5054246;28;20481;-91
2022/06/03 09:33:45;;;;;;;3.57;3.27;;;29.00;79.40;;;;;;5055631;28;20453;-90
2022/06/03 09:36:18;;;;;;;3.87;3.57;;;28.90;77.40;;;;;;5054715;28;20446;-88
2022/06/03 09:38:49;;;;;;;7.20;4.10;;;28.50;81.30;;;;;;5056056;22;20483;-94
2022/06/03 09:41:18;;;;;;;7.83;4.33;;;29.00;78.20;;;;;;5037372;28;20463;-88
2022/06/03 09:43:50;;;;;;;6.47;3.73;;;29.00;78.00;;;;;;5039184;28;20447;-88
2022/06/03 09:46:18;;;;;;;3.83;3.57;;;29.50;78.70;;;;;;5039488;28;20456;-89
2022/06/03 09:48:45;;;;;;;4.10;3.80;;;;;;;;;;5037307;28;20443;-95
2022/06/03 09:51:19;;;;;;;4.13;3.77;;;29.20;78.80;;;;;;5035698;28;20447;-93
2022/06/03 09:53:47;;;;;;;3.70;3.50;;;29.10;77.20;;;;;;5037418;28;20505;-93
2022/06/03 09:56:22;;;;;;;3.97;3.67;;;29.00;77.80;;;;;;5035955;28;20447;-94
2022/06/03 09:58:55;;;;;;;7.50;4.17;;;29.10;77.60;;;;;;5033235;28;20443;-88
2022/06/03 10:01:22;;;;;;;3.57;3.30;;;;;;;;;;5032303;28;20451;-88
2022/06/03 10:03:55;;;;;;;3.83;3.53;;;29.50;77.00;;;;;;5032956;28;20570;-87
2022/06/03 10:14:37;;;;;;;4.13;3.70;;;;;;;;;;5014068;28;20463;-90
2022/06/03 10:17:06;;;;;;;4.93;3.80;;;29.10;84.00;;;;;;5013375;28;20468;-87
2022/06/03 10:19:33;;;;;;;3.60;3.40;;;;;;;;;;5012142;28;20452;-88
2022/06/03 10:22:08;;;;;;;4.20;3.90;;;30.00;79.90;;;;;;5012769;28;20540;-88
2022/06/03 10:24:36;;;;;;;6.53;3.97;;;;;;;;;;5014505;28;20451;-89
2022/06/03 10:27:06;;;;;;;4.97;3.40;;;30.10;79.70;;;;;;5013731;28;20535;-89
2022/06/03 10:29:46;;;;;;;7.53;3.50;;;29.70;76.30;;;;;;5014482;28;20448;-89
2022/06/03 10:32:16;;;;;;;6.90;4.33;;;;;;;;;;5014945;28;20891;-90
2022/06/03 10:34:44;;;;;;;3.70;3.40;;;;;;;;;;5013065;28;20539;-90
2022/06/03 10:37:15;;;;;;;4.00;3.40;;;28.40;81.90;;;;;;5013375;28;20889;-88
2022/06/03 10:39:43;;;;;;;5.37;3.47;;;28.20;82.30;;;;;;5012860;28;21049;-88
2022/06/03 10:42:14;;;;;;;3.47;3.13;;;28.60;80.00;;;;;;5012712;28;20471;-89
2022/06/03 10:44:45;;;;;;;3.27;3.07;;;29.80;80.40;;;;;;5012518;28;20456;-88
2022/06/03 10:47:16;;;;;;;3.70;3.40;;;30.00;77.90;;;;;;5014177;28;20440;-88
2022/06/03 10:49:52;;;;;;;3.77;3.47;;;30.10;78.30;;;;;;5015202;28;20447;-90
2022/06/03 11:03:33;;;;;;;3.80;3.27;;;27.20;81.00;;;;;;5019446;28;20459;-87
2022/06/03 11:06:06;;;;;;;3.70;3.40;;;26.90;82.30;;;;;;5017847;28;20451;-91
2022/06/03 11:08:48;;;;;;;4.50;3.90;;;26.40;82.50;;;;;;5017467;28;20530;-90
2022/06/03 11:11:15;;;;;;;4.17;3.80;;;;;;;;;;5021762;28;20452;-89
2022/06/03 11:13:42;;;;;;;3.73;3.43;;;;;;;;;;5019255;28;20895;-88
2022/06/03 11:16:15;;;;;;;3.40;3.20;;;26.40;84.80;;;;;;5020264;28;20459;-89
2022/06/03 11:18:42;;;;;;;5.10;3.60;;;;;;;;;;5017196;28;20476;-88
2022/06/03 11:21:19;;;;;;;4.30;3.37;;;26.20;83.20;;;;;;5021553;28;20451;-88
2022/06/03 11:23:48;;;;;;;4.10;3.53;;;25.90;84.50;;;;;;5021986;28;20440;-89
2022/06/03 11:26:15;;;;;;;5.23;3.60;;;;;;;;;;5025364;28;20464;-88
2022/06/03 11:28:51;;;;;;;3.57;3.37;;;26.00;84.80;;;;;;5022525;28;20448;-87
2022/06/03 11:31:20;;;;;;;4.43;3.80;;;26.00;84.80;;;;;;5020299;28;20459;-91
2022/06/03 11:33:53;;;;;;;3.20;3.00;;;25.90;88.30;;;;;;5017213;28;20484;-88
2022/06/03 11:36:24;;;;;;;4.50;4.10;;;25.90;90.10;;;;;;5018392;28;20454;-86
2022/06/03 11:38:58;;;;;;;3.20;3.00;;;25.80;86.90;;;;;;5017452;28;20983;-89
2022/06/03 11:41:28;;;;;;;4.47;3.53;;;25.90;87.70;;;;;;5021236;28;20463;-91
2022/06/03 11:44:00;;;;;;;5.80;3.60;;;26.10;87.10;;;;;;5018844;28;20456;-90
2022/06/03 11:46:32;;;;;;;6.40;3.73;;;26.10;86.80;;;;;;5016647;28;20459;-90
2022/06/03 11:48:59;;;;;;;4.50;3.50;;;;;;;;;;5016203;28;20455;-88
2022/06/03 11:51:27;;;;;;;3.20;3.00;;;;;;;;;;5017239;28;20451;-88
2022/06/03 11:53:55;;;;;;;3.07;2.87;;;26.80;87.80;;;;;;5016068;28;20499;-90
2022/06/03 11:56:26;;;;;;;4.60;4.20;;;26.40;88.00;;;;;;5016631;28;20448;-88
2022/06/03 11:59:03;;;;;;;4.23;3.90;;;26.30;88.30;;;;;;5019181;28;21085;-92
2022/06/03 12:01:38;;;;;;;5.77;4.20;;;26.10;90.10;;;;;;5015787;28;20452;-89
2022/06/03 12:04:16;;;;;;;4.43;4.10;;;26.10;90.60;;;;;;5016359;28;20948;-94
2022/06/03 12:06:46;;;;;;;5.10;4.17;;;26.00;90.10;;;;;;5018959;28;20881;-92
2022/06/03 12:09:28;;;;;;;4.63;4.07;;;26.10;91.00;;;;;;5018397;28;20479;-90
2022/06/03 12:14:46;;;;;;;5.57;4.40;;;26.30;91.40;;;;;;5016133;28;21167;-91
2022/06/03 12:17:29;;;;;;;6.40;4.60;;;26.00;90.60;;;;;;5017282;28;20448;-92
2022/06/03 12:19:56;;;;;;;4.70;4.30;;;;;;;;;;5016376;28;20857;-92
2022/06/03 12:22:41;;;;;;;6.97;4.90;;;25.40;90.90;;;;;;5019288;28;20467;-91
2022/06/03 12:25:37;;;;;;;4.90;4.50;;;25.10;91.70;;;;;;5016468;28;20460;-92
2022/06/03 12:28:06;;;;;;;7.00;4.23;;;25.20;91.80;;;;;;5017166;28;20448;-92
2022/06/03 12:30:47;;;;;;;5.40;4.90;;;25.30;91.40;;;;;;5021870;28;20778;-94
2022/06/03 12:33:26;;;;;;;4.37;4.03;;;25.40;92.60;;;;;;5017236;28;20494;-92
2022/06/03 12:35:59;;;;;;;6.17;4.50;;;25.50;92.30;;;;;;5014872;28;20811;-91
2022/06/03 12:39:11;;;;;;;5.27;4.87;;;25.60;92.90;;;;;;5016704;28;20563;-91
2022/06/03 12:41:59;;;;;;;5.83;5.07;;;25.40;92.80;;;;;;4991632;28;20460;-94
2022/06/03 12:44:46;;;;;;;5.53;4.20;;;25.30;93.20;;;;;;5018173;28;20455;-93
2022/06/03 12:47:43;;;;;;;5.53;4.17;;;25.20;93.40;;;;;;5018154;28;20441;-90
2022/06/03 12:51:00;;;;;;;4.60;4.30;;;25.30;94.40;;;;;;5016208;28;20488;-95
2022/06/03 12:53:38;;;;;;;4.67;4.37;;;25.10;94.90;;;;;;4999747;28;20514;-93
2022/06/03 12:56:23;;;;;;;5.80;4.87;;;25.20;95.00;;;;;;5017163;28;20455;-92
2022/06/03 12:59:05;;;;;;;6.67;4.83;;;25.10;97.10;;;;;;5017776;28;20488;-91
2022/06/03 13:01:41;;;;;;;5.30;4.90;;;25.00;99.10;;;;;;5017695;28;20439;-93
2022/06/03 13:04:41;;;;;;;4.90;4.50;;;25.00;99.90;;;;;;5018839;28;20448;-91
2022/06/03 13:07:29;;;;;;;6.37;5.07;;;24.90;99.90;;;;;;5012617;28;20464;-89
2022/06/03 13:10:12;;;;;;;8.43;5.10;;;25.00;99.90;;;;;;5021720;28;20448;-89
2022/06/03 13:12:48;;;;;;;7.97;4.80;;;25.20;99.90;;;;;;5016815;28;20515;-92
2022/06/03 13:15:48;;;;;;;5.17;4.67;;;25.30;99.90;;;;;;5019616;28;20440;-89
2022/06/03 13:18:34;;;;;;;5.80;5.30;;;25.20;99.90;;;;;;5018206;28;20456;-92
2022/06/03 13:21:21;;;;;;;5.20;4.80;;;25.30;99.90;;;;;;5016249;28;20437;-92
2022/06/03 13:24:19;;;;;;;7.27;5.40;;;25.20;99.90;;;;;;5016311;28;20555;-90
2022/06/03 13:27:04;;;;;;;5.93;5.33;;;24.80;99.90;;;;;;5018201;28;20439;-89
2022/06/03 13:30:05;;;;;;;7.10;5.37;;;24.50;99.90;;;;;;5017597;28;20805;-92
2022/06/03 13:33:02;;;;;;;6.43;5.50;;;24.30;99.90;;;;;;5018719;28;20829;-89
2022/06/03 13:35:32;;;;;;;6.43;5.23;;;24.20;99.90;;;;;;5017565;28;20960;-91
2022/06/03 13:38:25;;;;;;;5.73;5.20;;;24.00;99.90;;;;;;5019496;28;20444;-89
2022/06/03 13:44:04;;;;;;;7.50;5.87;;;;;;;;;;5016373;28;20428;-91
2022/06/03 13:46:31;;;;;;;6.03;5.53;;;23.80;99.90;;;;;;5015123;28;20538;-91
2022/06/03 13:49:02;;;;;;;6.50;5.03;;;23.90;99.90;;;;;;5014695;28;20457;-93
2022/06/03 13:51:57;;;;;;;7.97;5.93;;;23.90;99.90;;;;;;5015408;28;20947;-89
2022/06/03 13:54:33;;;;;;;6.83;5.90;;;23.80;99.90;;;;;;5009439;28;20487;-89
2022/06/03 13:57:17;;;;;;;6.20;5.60;;;23.50;99.90;;;;;;5014669;28;20452;-91
2022/06/03 13:59:44;;;;;;;13.27;6.70;;;;;;;;;;5016253;28;20459;-91
2022/06/03 14:02:15;;;;;;;7.33;6.63;;;23.60;99.90;;;;;;5023553;28;20451;-90
2022/06/03 14:04:55;;;;;;;7.13;6.50;;;23.40;99.90;;;;;;5020186;28;20444;-90
2022/06/03 14:07:35;;;;;;;6.80;6.20;;;23.50;99.90;;;;;;5019574;28;20472;-87
2022/06/03 14:10:08;;;;;;;7.20;6.00;;;23.60;99.90;;;;;;5018972;28;20507;-88
2022/06/03 14:12:53;;;;;;;7.63;6.83;;;23.60;99.90;;;;;;5019264;28;20479;-89
2022/06/03 14:15:27;;;;;;;8.30;6.40;;;23.30;99.90;;;;;;5017233;28;20804;-91
2022/06/03 14:17:58;;;;;;;6.73;6.13;;;23.30;99.90;;;;;;5015595;28;20919;-90
2022/06/03 14:20:35;;;;;;;9.00;6.60;;;23.30;99.90;;;;;;5014381;28;20449;-91
2022/06/03 14:23:11;;;;;;;11.67;5.63;;;23.30;99.90;;;;;;5016146;28;20817;-87
2022/06/03 14:25:43;;;;;;;9.63;6.30;;;23.30;99.90;;;;;;5014854;28;20463;-87
2022/06/03 14:28:15;;;;;;;6.30;5.70;;;23.30;99.90;;;;;;5018776;28;20447;-91
2022/06/03 14:30:51;;;;;;;7.53;5.67;;;23.40;99.90;;;;;;5016344;28;20457;-92
2022/06/03 14:33:20;;;;;;;5.80;5.20;;;23.50;99.90;;;;;;5018468;28;20490;-92
2022/06/03 14:35:55;;;;;;;5.63;5.13;;;23.70;99.90;;;;;;5019169;28;20460;-92
2022/06/03 14:38:30;;;;;;;8.03;5.87;;;24.00;99.90;;;;;;5019605;28;20459;-92
2022/06/03 14:40:59;;;;;;;6.40;5.73;;;24.30;99.90;;;;;;5020955;28;20443;-90
2022/06/03 14:43:28;;;;;;;7.30;6.50;;;24.40;99.90;;;;;;5021082;28;20451;-92
2022/06/03 14:45:59;;;;;;;6.10;5.60;;;24.50;99.90;;;;;;5036431;28;20444;-90
2022/06/03 14:48:32;;;;;;;6.10;5.60;;;24.50;99.90;;;;;;5038293;28;20453;-92
2022/06/03 14:51:12;;;;;;;6.67;6.07;;;24.60;99.90;;;;;;5020151;28;20452;-95
2022/06/03 14:53:43;;;;;;;7.90;5.83;;;24.60;99.90;;;;;;5020595;28;20483;-89
2022/06/03 14:56:29;;;;;;;8.70;5.87;;;24.00;99.90;;;;;;5019858;28;20444;-91
2022/06/03 14:58:59;;;;;;;6.40;5.90;;;24.90;99.90;;;;;;5020363;28;20456;-94